createdAt,value
2019-05-07T00:01:02.713Z,82.98
2019-05-07T00:03:32.687Z,82.92
2019-05-07T00:06:02.658Z,82.99
2019-05-07T00:08:32.211Z,83.48
2019-05-07T00:11:02.510Z,83.48
2019-05-07T00:13:33.117Z,83.23
2019-05-07T00:16:02.501Z,82.53
2019-05-07T00:18:32.367Z,82.53
2019-05-07T00:21:03.364Z,82.71
2019-05-07T00:23:32.514Z,83.07
2019-05-07T00:26:02.537Z,83.76
2019-05-07T00:28:32.435Z,83.91
2019-05-07T00:31:02.841Z,83.17
2019-05-07T00:33:32.342Z,83.29
2019-05-07T00:36:02.675Z,83.33
2019-05-07T00:38:32.785Z,83.35
2019-05-07T00:41:05.851Z,83.46
2019-05-07T00:43:35.155Z,83.60
2019-05-07T00:46:05.285Z,83.75
2019-05-07T00:48:33.728Z,83.61
2019-05-07T00:51:22.453Z,83.49
2019-05-07T00:53:52.053Z,83.18
2019-05-07T00:56:22.349Z,83.15
2019-05-07T00:58:52.718Z,82.62
2019-05-07T01:01:22.727Z,82.67
2019-05-07T01:03:53.363Z,82.49
2019-05-07T01:06:22.743Z,82.50
2019-05-07T01:08:52.526Z,82.50
2019-05-07T01:11:22.636Z,82.53
2019-05-07T01:13:52.058Z,82.67
2019-05-07T01:16:22.187Z,82.67
2019-05-07T01:18:50.958Z,82.42
2019-05-07T01:21:19.446Z,82.24
2019-05-07T01:23:47.974Z,82.11
2019-05-07T01:26:16.500Z,82.14
2019-05-07T01:29:03.037Z,82.01
2019-05-07T01:31:34.368Z,82.26
2019-05-07T01:34:23.067Z,82.44
2019-05-07T01:36:52.424Z,82.90
2019-05-07T01:39:23.016Z,82.90
2019-05-07T01:41:52.452Z,83.00
2019-05-07T01:44:22.170Z,82.80
2019-05-07T01:46:53.043Z,83.02
2019-05-07T01:49:23.866Z,83.37
2019-05-07T01:51:53.017Z,83.22
2019-05-07T01:54:23.686Z,82.51
2019-05-07T01:56:52.267Z,82.51
2019-05-07T01:59:22.499Z,82.90
2019-05-07T02:01:52.771Z,82.71
2019-05-07T02:04:25.526Z,82.70
2019-05-07T02:07:13.813Z,83.08
2019-05-07T02:09:52.517Z,83.13
2019-05-07T02:12:25.237Z,82.81
2019-05-07T02:14:53.755Z,82.55
2019-05-07T02:17:22.889Z,82.62
2019-05-07T02:19:52.766Z,82.30
2019-05-07T02:22:22.723Z,82.54
2019-05-07T02:24:52.377Z,83.54
2019-05-07T02:27:22.092Z,83.54
2019-05-07T02:29:52.912Z,83.22
2019-05-07T02:32:23.732Z,83.90
2019-05-07T02:34:54.218Z,83.90
2019-05-07T02:37:26.279Z,84.33
2019-05-07T02:39:54.842Z,84.52
2019-05-07T02:42:24.050Z,84.88
2019-05-07T02:45:04.449Z,84.93
2019-05-07T02:47:33.905Z,85.28
2019-05-07T02:50:04.046Z,85.38
2019-05-07T02:52:53.381Z,85.18
2019-05-07T02:55:24.816Z,85.17
2019-05-07T02:57:54.246Z,84.76
2019-05-07T03:00:24.157Z,84.19
2019-05-07T03:02:53.427Z,84.06
2019-05-07T03:05:22.914Z,83.29
2019-05-07T03:07:53.589Z,83.29
2019-05-07T03:10:23.678Z,83.21
2019-05-07T03:12:53.703Z,82.79
2019-05-07T03:15:24.251Z,82.97
2019-05-07T03:17:53.747Z,83.08
2019-05-07T03:20:24.096Z,82.78
2019-05-07T03:22:53.897Z,82.42
2019-05-07T03:25:33.539Z,82.07
2019-05-07T03:28:00.202Z,82.48
2019-05-07T03:30:45.615Z,82.42
2019-05-07T03:33:16.822Z,82.37
2019-05-07T03:35:47.478Z,82.85
2019-05-07T03:38:15.899Z,83.12
2019-05-07T03:40:44.989Z,83.14
2019-05-07T03:43:14.288Z,83.39
2019-05-07T03:45:53.705Z,83.53
2019-05-07T03:48:23.705Z,84.07
2019-05-07T03:50:53.131Z,84.07
2019-05-07T03:53:23.122Z,84.80
2019-05-07T03:55:53.679Z,85.60
2019-05-07T03:58:23.548Z,85.86
2019-05-07T04:00:53.697Z,86.51
2019-05-07T04:03:24.494Z,86.89
2019-05-07T04:05:53.271Z,86.89
2019-05-07T04:08:23.593Z,86.93
2019-05-07T04:10:53.773Z,86.90
2019-05-07T04:13:23.948Z,86.72
2019-05-07T04:15:52.755Z,86.68
2019-05-07T04:18:23.727Z,86.12
2019-05-07T04:20:53.944Z,85.55
2019-05-07T04:23:23.240Z,85.87
2019-05-07T04:25:56.281Z,86.36
2019-05-07T04:28:33.470Z,86.11
2019-05-07T04:31:03.146Z,85.66
2019-05-07T04:33:33.637Z,84.87
2019-05-07T04:36:09.511Z,84.87
2019-05-07T04:38:37.917Z,83.48
2019-05-07T04:41:06.338Z,81.97
2019-05-07T04:43:34.875Z,81.90
2019-05-07T04:46:03.586Z,82.00
2019-05-07T04:48:34.075Z,81.82
2019-05-07T04:51:03.847Z,81.87
2019-05-07T04:53:32.981Z,82.84
2019-05-07T04:56:03.386Z,82.83
2019-05-07T04:58:33.737Z,82.72
2019-05-07T05:01:03.265Z,83.21
2019-05-07T05:03:34.604Z,83.78
2019-05-07T05:06:02.760Z,84.04
2019-05-07T05:08:32.555Z,84.56
2019-05-07T05:11:03.336Z,84.22
2019-05-07T05:13:33.018Z,82.47
2019-05-07T05:16:03.216Z,81.64
2019-05-07T05:18:33.003Z,80.00
2019-05-07T05:21:06.012Z,79.05
2019-05-07T05:23:36.091Z,78.34
2019-05-07T05:26:04.606Z,77.16
2019-05-07T05:28:33.056Z,76.52
2019-05-07T05:31:05.390Z,76.52
2019-05-07T05:33:33.917Z,75.68
2019-05-07T05:36:03.075Z,74.81
2019-05-07T05:38:32.921Z,73.55
2019-05-07T05:41:02.707Z,73.59
2019-05-07T05:43:35.741Z,73.72
2019-05-07T05:46:08.762Z,72.46
2019-05-07T05:48:37.183Z,72.88
2019-05-07T05:51:23.790Z,71.24
2019-05-07T05:54:02.580Z,70.63
2019-05-07T05:56:38.407Z,69.47
2019-05-07T05:59:27.897Z,69.29
2019-05-07T06:01:55.440Z,68.64
2019-05-07T06:04:25.500Z,66.79
2019-05-07T06:07:08.757Z,66.96
2019-05-07T06:09:38.637Z,67.21
2019-05-07T06:12:22.119Z,67.48
2019-05-07T06:14:53.907Z,68.49
2019-05-07T06:17:39.243Z,68.37
2019-05-07T06:20:22.740Z,67.27
2019-05-07T06:23:08.905Z,65.76
2019-05-07T06:25:37.652Z,65.29
2019-05-07T06:28:06.063Z,65.04
2019-05-07T06:30:34.651Z,64.66
2019-05-07T06:33:03.058Z,64.98
2019-05-07T06:35:32.458Z,63.14
2019-05-07T06:38:02.902Z,62.03
2019-05-07T06:40:33.026Z,61.06
2019-05-07T06:43:05.587Z,59.77
2019-05-07T06:45:38.840Z,60.41
2019-05-07T06:48:07.288Z,58.41
2019-05-07T06:50:35.716Z,55.22
2019-05-07T06:53:04.219Z,56.27
2019-05-07T06:55:33.108Z,52.82
2019-05-07T06:58:02.626Z,51.40
2019-05-07T07:00:33.226Z,52.61
2019-05-07T07:03:03.387Z,51.20
2019-05-07T07:05:33.447Z,50.52
2019-05-07T07:08:20.166Z,50.69
2019-05-07T07:11:02.771Z,47.88
2019-05-07T07:13:32.249Z,47.03
2019-05-07T07:16:01.975Z,45.01
2019-05-07T07:18:32.276Z,46.60
2019-05-07T07:21:02.222Z,44.59
2019-05-07T07:23:32.447Z,41.62
2019-05-07T07:26:03.238Z,40.54
2019-05-07T07:28:32.705Z,39.76
2019-05-07T07:31:22.628Z,39.28
2019-05-07T07:33:53.321Z,39.96
2019-05-07T07:36:23.454Z,39.97
2019-05-07T07:38:52.706Z,39.54
2019-05-07T07:41:28.702Z,36.95
2019-05-07T07:43:57.262Z,37.97
2019-05-07T07:46:25.861Z,37.46
2019-05-07T07:49:06.818Z,41.43
2019-05-07T07:51:37.949Z,41.22
2019-05-07T07:53:55.035Z,38.54
2019-05-07T07:56:47.844Z,37.10
2019-05-07T07:59:06.173Z,36.17
2019-05-07T08:01:54.628Z,37.20
2019-05-07T08:04:23.189Z,35.34
2019-05-07T08:07:03.583Z,33.84
2019-05-07T08:09:34.422Z,36.21
2019-05-07T08:12:03.948Z,37.04
2019-05-07T08:14:32.936Z,35.07
2019-05-07T08:17:03.061Z,35.16
2019-05-07T08:19:32.846Z,34.02
2019-05-07T08:22:02.881Z,33.40
2019-05-07T08:24:32.217Z,32.29
2019-05-07T08:27:02.444Z,30.69
2019-05-07T08:29:32.571Z,31.45
2019-05-07T08:32:03.216Z,30.38
2019-05-07T08:34:36.151Z,29.84
2019-05-07T08:37:04.676Z,28.69
2019-05-07T08:39:33.189Z,27.79
2019-05-07T08:42:02.134Z,26.56
2019-05-07T08:44:44.695Z,26.13
2019-05-07T08:47:14.795Z,25.77
2019-05-07T08:49:43.703Z,27.44
2019-05-07T08:52:12.220Z,31.55
2019-05-07T08:54:42.632Z,27.57
2019-05-07T08:57:12.172Z,28.72
2019-05-07T08:59:43.719Z,28.15
2019-05-07T09:02:12.575Z,30.86
2019-05-07T09:04:41.827Z,27.07
2019-05-07T09:07:12.829Z,24.49
2019-05-07T09:09:42.630Z,24.03
2019-05-07T09:12:12.423Z,22.12
2019-05-07T09:14:42.579Z,23.98
2019-05-07T09:17:12.750Z,25.52
2019-05-07T09:19:50.665Z,26.76
2019-05-07T09:22:12.703Z,26.51
2019-05-07T09:24:42.435Z,27.90
2019-05-07T09:27:18.506Z,29.23
2019-05-07T09:29:52.382Z,27.83
2019-05-07T09:32:28.297Z,26.11
2019-05-07T09:34:58.445Z,26.05
2019-05-07T09:37:32.598Z,26.49
2019-05-07T09:40:03.157Z,25.91
2019-05-07T09:42:33.190Z,25.82
2019-05-07T09:45:02.085Z,25.62
2019-05-07T09:47:32.478Z,27.48
2019-05-07T09:50:05.463Z,29.09
2019-05-07T09:52:32.083Z,31.37
2019-05-07T09:55:11.033Z,30.80
2019-05-07T09:57:34.638Z,28.67
2019-05-07T10:00:02.569Z,28.85
2019-05-07T10:02:32.076Z,30.05
2019-05-07T10:05:02.494Z,30.64
2019-05-07T10:07:32.399Z,31.09
2019-05-07T10:10:03.287Z,30.97
2019-05-07T10:12:35.835Z,28.87
2019-05-07T10:15:05.555Z,29.74
2019-05-07T10:17:52.230Z,28.52
2019-05-07T10:20:22.745Z,30.64
2019-05-07T10:22:52.036Z,30.80
2019-05-07T10:25:22.452Z,28.61
2019-05-07T10:27:53.035Z,27.16
2019-05-07T10:30:21.906Z,27.14
2019-05-07T10:32:52.486Z,28.85
2019-05-07T10:35:22.738Z,27.48
2019-05-07T10:37:52.765Z,28.20
2019-05-07T10:40:22.376Z,27.79
2019-05-07T10:42:51.954Z,28.70
2019-05-07T10:45:38.713Z,28.71
2019-05-07T10:48:17.758Z,27.33
2019-05-07T10:50:57.134Z,26.28
2019-05-07T10:53:25.649Z,25.60
2019-05-07T10:55:54.072Z,26.27
2019-05-07T10:58:22.576Z,25.90
2019-05-07T11:00:52.315Z,27.50
2019-05-07T11:03:21.955Z,26.58
2019-05-07T11:05:50.677Z,27.01
2019-05-07T11:08:19.183Z,26.44
2019-05-07T11:10:47.882Z,32.20
2019-05-07T11:13:16.452Z,28.01
2019-05-07T11:15:46.534Z,28.69
2019-05-07T11:18:21.729Z,29.41
2019-05-07T11:20:52.841Z,31.78
2019-05-07T11:23:22.113Z,32.84
2019-05-07T11:25:52.687Z,32.83
2019-05-07T11:28:22.680Z,32.95
2019-05-07T11:30:51.394Z,32.52
2019-05-07T11:33:21.879Z,31.92
2019-05-07T11:35:49.994Z,33.42
2019-05-07T11:38:24.072Z,34.64
2019-05-07T11:40:48.979Z,34.75
2019-05-07T11:43:22.315Z,32.22
2019-05-07T11:45:54.345Z,30.88
2019-05-07T11:48:24.234Z,30.51
2019-05-07T11:51:03.801Z,30.17
2019-05-07T11:53:26.246Z,30.34
2019-05-07T11:55:54.662Z,31.16
2019-05-07T11:58:23.191Z,32.39
2019-05-07T12:00:56.255Z,32.35
2019-05-07T12:03:24.746Z,31.92
2019-05-07T12:05:53.194Z,30.79
2019-05-07T12:08:22.422Z,31.37
2019-05-07T12:10:52.015Z,30.60
2019-05-07T12:13:21.772Z,32.64
2019-05-07T12:15:52.137Z,32.02
2019-05-07T12:18:22.740Z,32.05
2019-05-07T12:20:53.900Z,32.63
2019-05-07T12:23:22.638Z,33.24
2019-05-07T12:25:52.885Z,32.16
2019-05-07T12:28:22.537Z,32.33
2019-05-07T12:30:58.792Z,32.03
2019-05-07T12:33:44.076Z,31.15
2019-05-07T12:36:14.232Z,32.02
2019-05-07T12:38:42.744Z,31.52
2019-05-07T12:41:29.713Z,32.18
2019-05-07T12:43:59.564Z,31.72
2019-05-07T12:46:28.427Z,31.01
2019-05-07T12:48:57.024Z,31.83
2019-05-07T12:51:34.570Z,31.57
2019-05-07T12:54:03.162Z,31.98
2019-05-07T12:56:32.074Z,33.34
2019-05-07T12:59:02.202Z,33.68
2019-05-07T13:01:32.940Z,33.91
2019-05-07T13:04:11.796Z,34.27
2019-05-07T13:06:44.933Z,32.10
2019-05-07T13:09:13.834Z,31.94
2019-05-07T13:11:42.543Z,31.12
2019-05-07T13:14:12.556Z,31.53
2019-05-07T13:16:41.247Z,32.68
2019-05-07T13:19:09.751Z,29.96
2019-05-07T13:21:49.192Z,30.30
2019-05-07T13:24:08.546Z,33.25
2019-05-07T13:26:37.027Z,33.08
2019-05-07T13:29:05.581Z,32.21
2019-05-07T13:31:35.873Z,32.32
2019-05-07T13:34:04.532Z,31.62
2019-05-07T13:36:35.226Z,31.61
2019-05-07T13:39:23.491Z,32.14
2019-05-07T13:41:53.828Z,33.22
2019-05-07T13:44:42.469Z,34.14
2019-05-07T13:47:27.843Z,31.00
2019-05-07T13:49:57.010Z,33.49
2019-05-07T13:52:25.565Z,31.41
2019-05-07T13:54:54.667Z,31.62
2019-05-07T13:57:23.433Z,32.81
2019-05-07T13:59:53.010Z,31.10
2019-05-07T14:02:26.197Z,30.90
2019-05-07T14:04:54.751Z,32.12
2019-05-07T14:07:26.659Z,32.04
2019-05-07T14:09:55.249Z,32.67
2019-05-07T14:12:23.883Z,33.68
2019-05-07T14:14:53.013Z,33.57
2019-05-07T14:17:22.095Z,33.17
2019-05-07T14:19:52.872Z,34.83
2019-05-07T14:22:22.551Z,33.03
2019-05-07T14:24:52.973Z,31.78
2019-05-07T14:27:21.792Z,33.00
2019-05-07T14:29:52.096Z,31.46
2019-05-07T14:32:25.003Z,31.93
2019-05-07T14:35:12.332Z,30.84
2019-05-07T14:37:42.563Z,31.26
2019-05-07T14:40:12.921Z,32.21
2019-05-07T14:42:43.164Z,32.62
2019-05-07T14:45:11.978Z,31.75
2019-05-07T14:47:44.429Z,32.81
2019-05-07T14:50:12.352Z,32.58
2019-05-07T14:52:43.075Z,31.48
2019-05-07T14:55:12.851Z,33.79
2019-05-07T14:57:42.084Z,33.10
2019-05-07T15:00:12.243Z,32.62
2019-05-07T15:02:42.141Z,33.20
2019-05-07T15:05:11.989Z,33.85
2019-05-07T15:07:40.929Z,33.66
2019-05-07T15:10:10.650Z,32.17
2019-05-07T15:12:39.263Z,32.44
2019-05-07T15:15:08.132Z,33.40
2019-05-07T15:17:38.303Z,31.90
2019-05-07T15:20:06.867Z,30.79
2019-05-07T15:22:47.160Z,32.72
2019-05-07T15:25:07.587Z,32.81
2019-05-07T15:27:36.957Z,32.79
2019-05-07T15:30:06.116Z,32.60
2019-05-07T15:32:34.713Z,32.11
2019-05-07T15:35:03.972Z,32.63
2019-05-07T15:37:32.541Z,33.49
2019-05-07T15:40:02.512Z,32.64
2019-05-07T15:42:32.762Z,32.27
2019-05-07T15:45:02.296Z,33.36
2019-05-07T15:47:38.741Z,32.28
2019-05-07T15:50:07.518Z,32.91
2019-05-07T15:52:58.425Z,32.23
2019-05-07T15:55:23.015Z,33.48
2019-05-07T15:57:52.258Z,33.13
2019-05-07T16:00:23.734Z,33.89
2019-05-07T16:02:53.991Z,32.15
2019-05-07T16:05:22.503Z,33.42
2019-05-07T16:07:51.807Z,33.29
2019-05-07T16:10:23.021Z,33.16
2019-05-07T16:12:53.093Z,33.54
2019-05-07T16:15:22.488Z,33.42
2019-05-07T16:17:52.745Z,32.61
2019-05-07T16:20:22.818Z,32.42
2019-05-07T16:22:55.128Z,32.28
2019-05-07T16:25:23.440Z,34.47
2019-05-07T16:27:52.720Z,33.49
2019-05-07T16:30:22.856Z,34.64
2019-05-07T16:32:55.108Z,34.15
2019-05-07T16:35:22.791Z,34.54
2019-05-07T16:37:52.211Z,33.76
2019-05-07T16:40:22.788Z,33.95
2019-05-07T16:42:52.422Z,33.71
2019-05-07T16:45:21.482Z,33.68
2019-05-07T16:47:51.987Z,33.27
2019-05-07T16:50:22.364Z,34.08
2019-05-07T16:52:52.430Z,35.04
2019-05-07T16:55:22.477Z,34.45
2019-05-07T16:58:04.686Z,34.95
2019-05-07T17:00:35.046Z,33.81
2019-05-07T17:03:05.112Z,34.63
2019-05-07T17:05:33.533Z,34.87
2019-05-07T17:08:03.632Z,34.67
2019-05-07T17:10:32.184Z,36.03
2019-05-07T17:13:02.764Z,35.64
2019-05-07T17:15:31.053Z,35.18
2019-05-07T17:17:59.449Z,35.38
2019-05-07T17:20:28.604Z,35.31
2019-05-07T17:22:57.235Z,36.50
2019-05-07T17:25:37.517Z,36.47
2019-05-07T17:28:08.749Z,35.46
2019-05-07T17:30:37.950Z,35.70
2019-05-07T17:33:06.823Z,36.12
2019-05-07T17:35:35.350Z,35.96
2019-05-07T17:38:08.956Z,36.33
2019-05-07T17:40:34.208Z,37.01
2019-05-07T17:43:03.250Z,38.14
2019-05-07T17:45:32.862Z,39.02
2019-05-07T17:48:03.218Z,38.05
2019-05-07T17:50:51.588Z,37.94
2019-05-07T17:53:22.165Z,38.75
2019-05-07T17:55:50.373Z,38.95
2019-05-07T17:58:18.898Z,38.42
2019-05-07T18:00:49.120Z,38.58
2019-05-07T18:03:32.459Z,37.94
2019-05-07T18:06:02.410Z,38.82
2019-05-07T18:08:32.571Z,39.93
2019-05-07T18:11:02.648Z,39.13
2019-05-07T18:13:32.706Z,39.33
2019-05-07T18:16:03.156Z,39.16
2019-05-07T18:18:32.830Z,40.04
2019-05-07T18:21:02.219Z,40.05
2019-05-07T18:23:32.117Z,39.99
2019-05-07T18:26:00.754Z,39.85
2019-05-07T18:28:29.617Z,40.59
2019-05-07T18:30:58.763Z,40.04
2019-05-07T18:33:33.459Z,40.52
2019-05-07T18:36:02.792Z,40.75
2019-05-07T18:38:32.888Z,39.59
2019-05-07T18:41:02.600Z,39.23
2019-05-07T18:43:33.193Z,39.80
2019-05-07T18:46:02.308Z,39.43
2019-05-07T18:48:31.034Z,40.27
2019-05-07T18:50:59.548Z,40.91
2019-05-07T18:53:28.084Z,40.78
2019-05-07T18:55:56.580Z,41.14
2019-05-07T18:58:25.225Z,41.21
2019-05-07T19:00:55.297Z,41.10
2019-05-07T19:03:25.332Z,41.89
2019-05-07T19:05:54.296Z,41.70
2019-05-07T19:08:23.049Z,42.37
2019-05-07T19:10:52.285Z,43.30
2019-05-07T19:13:22.191Z,42.89
2019-05-07T19:15:53.009Z,43.48
2019-05-07T19:18:22.785Z,43.55
2019-05-07T19:20:52.913Z,43.76
2019-05-07T19:23:22.289Z,44.16
2019-05-07T19:25:52.339Z,44.04
2019-05-07T19:28:22.494Z,44.31
2019-05-07T19:30:52.729Z,43.42
2019-05-07T19:33:26.194Z,44.38
2019-05-07T19:35:52.773Z,45.24
2019-05-07T19:38:21.566Z,46.26
2019-05-07T19:40:50.144Z,46.86
2019-05-07T19:43:18.645Z,47.50
2019-05-07T19:45:47.160Z,48.25
2019-05-07T19:48:15.754Z,48.90
2019-05-07T19:50:44.269Z,49.02
2019-05-07T19:53:12.762Z,49.09
2019-05-07T19:55:45.253Z,49.49
2019-05-07T19:58:12.986Z,49.42
2019-05-07T20:00:43.709Z,49.74
2019-05-07T20:03:13.099Z,49.35
2019-05-07T20:05:42.006Z,49.86
2019-05-07T20:08:12.054Z,49.51
2019-05-07T20:10:42.316Z,50.50
2019-05-07T20:13:12.489Z,49.79
2019-05-07T20:15:42.775Z,49.82
2019-05-07T20:18:12.420Z,50.15
2019-05-07T20:20:42.446Z,50.88
2019-05-07T20:23:12.065Z,51.01
2019-05-07T20:25:42.039Z,51.26
2019-05-07T20:28:12.771Z,51.41
2019-05-07T20:30:41.846Z,51.59
2019-05-07T20:33:10.513Z,52.24
2019-05-07T20:35:41.306Z,51.87
2019-05-07T20:38:09.111Z,51.43
2019-05-07T20:40:37.558Z,51.69
2019-05-07T20:43:06.061Z,53.69
2019-05-07T20:45:34.529Z,54.52
2019-05-07T20:48:03.091Z,53.51
2019-05-07T20:50:33.266Z,51.92
2019-05-07T20:53:02.153Z,50.73
2019-05-07T20:55:48.995Z,49.44
2019-05-07T20:58:17.511Z,48.01
2019-05-07T21:00:46.597Z,48.13
2019-05-07T21:03:23.389Z,48.42
2019-05-07T21:05:53.320Z,49.01
2019-05-07T21:08:22.768Z,49.07
2019-05-07T21:10:53.601Z,49.10
2019-05-07T21:13:28.461Z,48.76
2019-05-07T21:15:52.673Z,48.72
2019-05-07T21:18:23.335Z,48.62
2019-05-07T21:20:53.001Z,47.53
2019-05-07T21:23:23.031Z,47.64
2019-05-07T21:25:52.695Z,47.43
2019-05-07T21:28:21.762Z,48.20
2019-05-07T21:30:52.231Z,48.06
2019-05-07T21:33:22.587Z,48.13
2019-05-07T21:35:52.353Z,48.67
2019-05-07T21:38:22.302Z,48.98
2019-05-07T21:40:51.074Z,48.69
2019-05-07T21:43:21.908Z,48.27
2019-05-07T21:45:49.917Z,47.25
2019-05-07T21:48:18.399Z,47.12
2019-05-07T21:50:46.883Z,47.27
2019-05-07T21:53:20.144Z,47.10
2019-05-07T21:55:59.882Z,47.36
2019-05-07T21:58:22.581Z,47.60
2019-05-07T22:00:55.804Z,47.56
2019-05-07T22:03:24.222Z,47.46
2019-05-07T22:05:52.775Z,47.58
2019-05-07T22:08:21.912Z,47.35
2019-05-07T22:10:50.468Z,46.74
2019-05-07T22:13:18.881Z,47.71
2019-05-07T22:15:47.391Z,48.80
2019-05-07T22:18:15.942Z,49.60
2019-05-07T22:20:44.356Z,49.35
2019-05-07T22:23:12.864Z,49.04
2019-05-07T22:25:42.217Z,48.28
2019-05-07T22:28:13.091Z,48.27
2019-05-07T22:30:48.461Z,48.29
2019-05-07T22:33:18.548Z,47.73
2019-05-07T22:35:47.360Z,47.50
2019-05-07T22:38:15.844Z,47.71
2019-05-07T22:40:44.292Z,47.47
2019-05-07T22:43:13.059Z,48.14
2019-05-07T22:45:42.848Z,47.89
2019-05-07T22:48:12.252Z,48.80
2019-05-07T22:50:42.351Z,47.96
2019-05-07T22:53:12.590Z,47.63
2019-05-07T22:55:41.879Z,47.45
2019-05-07T22:58:21.992Z,47.64
2019-05-07T23:00:57.802Z,48.46
2019-05-07T23:03:26.219Z,48.36
2019-05-07T23:05:56.372Z,48.81
2019-05-07T23:08:24.801Z,48.67
2019-05-07T23:10:53.252Z,49.02
2019-05-07T23:13:22.671Z,49.69
2019-05-07T23:15:51.649Z,49.49
2019-05-07T23:18:22.686Z,49.68
2019-05-07T23:20:52.719Z,50.53
2019-05-07T23:23:21.757Z,50.16
2019-05-07T23:25:52.248Z,50.32
2019-05-07T23:28:22.779Z,50.95
2019-05-07T23:30:51.832Z,51.34
2019-05-07T23:33:22.653Z,52.11
2019-05-07T23:35:52.710Z,51.99
2019-05-07T23:38:22.542Z,52.32
2019-05-07T23:40:58.731Z,53.18
2019-05-07T23:43:27.148Z,52.96
2019-05-07T23:45:55.636Z,53.11
2019-05-07T23:48:24.100Z,53.09
2019-05-07T23:50:52.701Z,53.05
2019-05-07T23:53:22.470Z,53.27
2019-05-07T23:55:51.976Z,53.38
2019-05-07T23:58:22.933Z,53.14
